sensor_id;sensor_type;location;lat;lon;timestamp;temperature;humidity
38084;DHT22;23894;51.466;7.444;2022-08-19T00:01:05;17.80;99.90
38084;DHT22;23894;51.466;7.444;2022-08-19T00:03:06;17.70;99.90
38084;DHT22;23894;51.466;7.444;2022-08-19T00:05:08;17.70;99.90
38084;DHT22;23894;51.466;7.444;2022-08-19T00:07:10;17.70;99.90
38084;DHT22;23894;51.466;7.444;2022-08-19T00:09:12;17.70;99.90
38084;DHT22;23894;51.466;7.444;2022-08-19T00:11:13;17.60;99.90
38084;DHT22;23894;51.466;7.444;2022-08-19T00:13:14;17.60;99.90
38084;DHT22;23894;51.466;7.444;2022-08-19T00:15:17;17.60;99.90
38084;DHT22;23894;51.466;7.444;2022-08-19T00:17:19;17.60;99.90
38084;DHT22;23894;51.466;7.444;2022-08-19T00:19:21;17.60;99.90
38084;DHT22;23894;51.466;7.444;2022-08-19T00:21:26;17.60;99.90
38084;DHT22;23894;51.466;7.444;2022-08-19T00:23:30;17.60;99.90
38084;DHT22;23894;51.466;7.444;2022-08-19T00:25:34;17.60;99.90
38084;DHT22;23894;51.466;7.444;2022-08-19T00:27:37;17.60;99.90
38084;DHT22;23894;51.466;7.444;2022-08-19T00:29:37;17.60;99.90
38084;DHT22;23894;51.466;7.444;2022-08-19T00:31:38;17.50;99.90
38084;DHT22;23894;51.466;7.444;2022-08-19T00:33:39;17.60;99.90
38084;DHT22;23894;51.466;7.444;2022-08-19T00:35:39;17.60;99.90
38084;DHT22;23894;51.466;7.444;2022-08-19T00:37:40;17.60;99.90
38084;DHT22;23894;51.466;7.444;2022-08-19T00:39:43;17.60;99.90
38084;DHT22;23894;51.466;7.444;2022-08-19T00:41:44;17.60;99.90
38084;DHT22;23894;51.466;7.444;2022-08-19T00:44:01;17.60;99.90
38084;DHT22;23894;51.466;7.444;2022-08-19T00:46:02;17.50;99.90
38084;DHT22;23894;51.466;7.444;2022-08-19T00:48:04;17.50;99.90
38084;DHT22;23894;51.466;7.444;2022-08-19T00:50:05;17.50;99.90
38084;DHT22;23894;51.466;7.444;2022-08-19T00:52:14;17.50;99.90
38084;DHT22;23894;51.466;7.444;2022-08-19T00:54:15;17.50;99.90
38084;DHT22;23894;51.466;7.444;2022-08-19T00:56:16;17.40;99.90
38084;DHT22;23894;51.466;7.444;2022-08-19T00:58:20;17.40;99.90
38084;DHT22;23894;51.466;7.444;2022-08-19T01:00:25;17.40;99.90
38084;DHT22;23894;51.466;7.444;2022-08-19T01:02:26;17.40;99.90
38084;DHT22;23894;51.466;7.444;2022-08-19T01:04:27;17.40;99.90
38084;DHT22;23894;51.466;7.444;2022-08-19T01:06:28;17.30;99.90
38084;DHT22;23894;51.466;7.444;2022-08-19T01:08:28;17.30;99.90
38084;DHT22;23894;51.466;7.444;2022-08-19T01:10:30;17.30;99.90
38084;DHT22;23894;51.466;7.444;2022-08-19T01:12:32;17.30;99.90
38084;DHT22;23894;51.466;7.444;2022-08-19T01:14:33;17.30;99.90
38084;DHT22;23894;51.466;7.444;2022-08-19T01:16:35;17.30;99.90
38084;DHT22;23894;51.466;7.444;2022-08-19T01:18:36;17.30;99.90
38084;DHT22;23894;51.466;7.444;2022-08-19T01:20:39;17.30;99.90
38084;DHT22;23894;51.466;7.444;2022-08-19T01:22:50;17.20;99.90
38084;DHT22;23894;51.466;7.444;2022-08-19T01:24:51;17.20;99.90
38084;DHT22;23894;51.466;7.444;2022-08-19T01:26:52;17.20;99.90
38084;DHT22;23894;51.466;7.444;2022-08-19T01:28:56;17.20;99.90
38084;DHT22;23894;51.466;7.444;2022-08-19T01:30:57;17.20;99.90
38084;DHT22;23894;51.466;7.444;2022-08-19T01:32:57;17.20;99.90
38084;DHT22;23894;51.466;7.444;2022-08-19T01:35:01;17.20;99.90
38084;DHT22;23894;51.466;7.444;2022-08-19T01:37:09;17.20;99.90
38084;DHT22;23894;51.466;7.444;2022-08-19T01:39:14;17.20;99.90
38084;DHT22;23894;51.466;7.444;2022-08-19T01:41:17;17.10;99.90
38084;DHT22;23894;51.466;7.444;2022-08-19T01:43:18;17.10;99.90
38084;DHT22;23894;51.466;7.444;2022-08-19T01:45:19;17.10;99.90
38084;DHT22;23894;51.466;7.444;2022-08-19T01:47:21;17.10;99.90
38084;DHT22;23894;51.466;7.444;2022-08-19T01:49:24;17.10;99.90
38084;DHT22;23894;51.466;7.444;2022-08-19T01:51:26;17.10;99.90
38084;DHT22;23894;51.466;7.444;2022-08-19T01:53:27;17.10;99.90
38084;DHT22;23894;51.466;7.444;2022-08-19T01:55:28;17.10;99.90
38084;DHT22;23894;51.466;7.444;2022-08-19T01:57:29;17.10;99.90
38084;DHT22;23894;51.466;7.444;2022-08-19T01:59:29;17.10;99.90
38084;DHT22;23894;51.466;7.444;2022-08-19T02:01:30;17.10;99.90
38084;DHT22;23894;51.466;7.444;2022-08-19T02:03:34;17.00;99.90
38084;DHT22;23894;51.466;7.444;2022-08-19T02:05:35;17.10;99.90
38084;DHT22;23894;51.466;7.444;2022-08-19T02:07:35;17.00;99.90
38084;DHT22;23894;51.466;7.444;2022-08-19T02:09:36;17.10;99.90
38084;DHT22;23894;51.466;7.444;2022-08-19T02:11:36;17.10;99.90
38084;DHT22;23894;51.466;7.444;2022-08-19T02:13:38;17.00;99.90
38084;DHT22;23894;51.466;7.444;2022-08-19T02:15:38;17.00;99.90
38084;DHT22;23894;51.466;7.444;2022-08-19T02:17:39;17.00;99.90
38084;DHT22;23894;51.466;7.444;2022-08-19T02:19:40;17.00;99.90
38084;DHT22;23894;51.466;7.444;2022-08-19T02:21:40;16.90;99.90
38084;DHT22;23894;51.466;7.444;2022-08-19T02:23:41;16.90;99.90
38084;DHT22;23894;51.466;7.444;2022-08-19T02:25:46;16.80;99.90
38084;DHT22;23894;51.466;7.444;2022-08-19T02:27:47;16.80;99.90
38084;DHT22;23894;51.466;7.444;2022-08-19T02:29:48;16.80;99.90
38084;DHT22;23894;51.466;7.444;2022-08-19T02:31:49;16.90;99.90
38084;DHT22;23894;51.466;7.444;2022-08-19T02:33:50;17.00;99.90
38084;DHT22;23894;51.466;7.444;2022-08-19T02:35:52;16.90;99.90
38084;DHT22;23894;51.466;7.444;2022-08-19T02:37:52;17.00;99.90
38084;DHT22;23894;51.466;7.444;2022-08-19T02:40:12;17.00;99.90
38084;DHT22;23894;51.466;7.444;2022-08-19T02:42:12;17.00;99.90
38084;DHT22;23894;51.466;7.444;2022-08-19T02:44:13;16.90;99.90
38084;DHT22;23894;51.466;7.444;2022-08-19T02:48:15;16.90;99.90
38084;DHT22;23894;51.466;7.444;2022-08-19T02:50:17;16.90;99.90
38084;DHT22;23894;51.466;7.444;2022-08-19T02:52:18;16.90;99.90
38084;DHT22;23894;51.466;7.444;2022-08-19T02:54:19;16.90;99.90
38084;DHT22;23894;51.466;7.444;2022-08-19T02:56:19;16.90;99.90
38084;DHT22;23894;51.466;7.444;2022-08-19T02:58:20;16.90;99.90
38084;DHT22;23894;51.466;7.444;2022-08-19T03:00:22;16.90;99.90
38084;DHT22;23894;51.466;7.444;2022-08-19T03:02:24;16.80;99.90
38084;DHT22;23894;51.466;7.444;2022-08-19T03:04:24;16.80;99.90
38084;DHT22;23894;51.466;7.444;2022-08-19T03:06:25;16.80;99.90
38084;DHT22;23894;51.466;7.444;2022-08-19T03:08:26;16.80;99.90
38084;DHT22;23894;51.466;7.444;2022-08-19T03:10:26;16.80;99.90
38084;DHT22;23894;51.466;7.444;2022-08-19T03:12:27;16.80;99.90
38084;DHT22;23894;51.466;7.444;2022-08-19T03:14:29;16.80;99.90
38084;DHT22;23894;51.466;7.444;2022-08-19T03:16:31;16.90;99.90
38084;DHT22;23894;51.466;7.444;2022-08-19T03:18:31;16.80;99.90
38084;DHT22;23894;51.466;7.444;2022-08-19T03:20:32;16.80;99.90
38084;DHT22;23894;51.466;7.444;2022-08-19T03:22:33;16.70;99.90
38084;DHT22;23894;51.466;7.444;2022-08-19T03:24:33;16.70;99.90
38084;DHT22;23894;51.466;7.444;2022-08-19T03:26:34;16.70;99.90
38084;DHT22;23894;51.466;7.444;2022-08-19T03:28:38;16.70;99.90
38084;DHT22;23894;51.466;7.444;2022-08-19T03:30:39;16.70;99.90
38084;DHT22;23894;51.466;7.444;2022-08-19T03:32:40;16.70;99.90
38084;DHT22;23894;51.466;7.444;2022-08-19T03:34:41;16.70;99.90
38084;DHT22;23894;51.466;7.444;2022-08-19T03:36:41;16.70;99.90
38084;DHT22;23894;51.466;7.444;2022-08-19T03:38:46;16.70;99.90
38084;DHT22;23894;51.466;7.444;2022-08-19T03:40:48;16.70;99.90
38084;DHT22;23894;51.466;7.444;2022-08-19T03:42:48;16.70;99.90
38084;DHT22;23894;51.466;7.444;2022-08-19T03:44:49;16.70;99.90
38084;DHT22;23894;51.466;7.444;2022-08-19T03:46:51;16.70;99.90
38084;DHT22;23894;51.466;7.444;2022-08-19T03:48:53;16.70;99.90
38084;DHT22;23894;51.466;7.444;2022-08-19T03:50:57;16.70;99.90
38084;DHT22;23894;51.466;7.444;2022-08-19T03:52:59;16.70;99.90
38084;DHT22;23894;51.466;7.444;2022-08-19T03:55:01;16.70;99.90
38084;DHT22;23894;51.466;7.444;2022-08-19T03:57:02;16.70;99.90
38084;DHT22;23894;51.466;7.444;2022-08-19T03:59:03;16.60;99.90
38084;DHT22;23894;51.466;7.444;2022-08-19T04:01:06;16.70;99.90
38084;DHT22;23894;51.466;7.444;2022-08-19T04:03:07;16.60;99.90
38084;DHT22;23894;51.466;7.444;2022-08-19T04:05:08;16.60;99.90
38084;DHT22;23894;51.466;7.444;2022-08-19T04:07:09;16.70;99.90
38084;DHT22;23894;51.466;7.444;2022-08-19T04:09:10;16.60;99.90
38084;DHT22;23894;51.466;7.444;2022-08-19T04:11:15;16.60;99.90
38084;DHT22;23894;51.466;7.444;2022-08-19T04:13:16;16.60;99.90
38084;DHT22;23894;51.466;7.444;2022-08-19T04:15:17;16.60;99.90
38084;DHT22;23894;51.466;7.444;2022-08-19T04:17:17;16.60;99.90
38084;DHT22;23894;51.466;7.444;2022-08-19T04:19:18;16.60;99.90
38084;DHT22;23894;51.466;7.444;2022-08-19T04:21:21;16.60;99.90
38084;DHT22;23894;51.466;7.444;2022-08-19T04:23:22;16.60;99.90
38084;DHT22;23894;51.466;7.444;2022-08-19T04:25:24;16.60;99.90
38084;DHT22;23894;51.466;7.444;2022-08-19T04:27:25;16.60;99.90
38084;DHT22;23894;51.466;7.444;2022-08-19T04:29:26;16.60;99.90
38084;DHT22;23894;51.466;7.444;2022-08-19T04:31:28;16.60;99.90
38084;DHT22;23894;51.466;7.444;2022-08-19T04:33:29;16.60;99.90
38084;DHT22;23894;51.466;7.444;2022-08-19T04:35:34;16.60;99.90
38084;DHT22;23894;51.466;7.444;2022-08-19T04:37:34;16.60;99.90
38084;DHT22;23894;51.466;7.444;2022-08-19T04:39:35;16.60;99.90
38084;DHT22;23894;51.466;7.444;2022-08-19T04:41:54;16.60;99.90
38084;DHT22;23894;51.466;7.444;2022-08-19T04:44:13;16.60;99.90
38084;DHT22;23894;51.466;7.444;2022-08-19T04:46:14;16.60;99.90
38084;DHT22;23894;51.466;7.444;2022-08-19T04:48:14;16.60;99.90
38084;DHT22;23894;51.466;7.444;2022-08-19T04:50:15;16.60;99.90
38084;DHT22;23894;51.466;7.444;2022-08-19T04:52:15;16.60;99.90
38084;DHT22;23894;51.466;7.444;2022-08-19T04:54:16;16.60;99.90
38084;DHT22;23894;51.466;7.444;2022-08-19T04:56:18;16.60;99.90
38084;DHT22;23894;51.466;7.444;2022-08-19T04:58:23;16.60;99.90
38084;DHT22;23894;51.466;7.444;2022-08-19T05:00:24;16.60;99.90
38084;DHT22;23894;51.466;7.444;2022-08-19T05:02:25;16.70;99.90
38084;DHT22;23894;51.466;7.444;2022-08-19T05:04:25;16.70;99.90
38084;DHT22;23894;51.466;7.444;2022-08-19T05:06:26;16.70;99.90
38084;DHT22;23894;51.466;7.444;2022-08-19T05:08:27;16.60;99.90
38084;DHT22;23894;51.466;7.444;2022-08-19T05:10:28;16.60;99.90
38084;DHT22;23894;51.466;7.444;2022-08-19T05:12:30;16.70;99.90
38084;DHT22;23894;51.466;7.444;2022-08-19T05:14:31;16.70;99.90
38084;DHT22;23894;51.466;7.444;2022-08-19T05:16:31;16.70;99.90
38084;DHT22;23894;51.466;7.444;2022-08-19T05:18:32;16.70;99.90
38084;DHT22;23894;51.466;7.444;2022-08-19T05:20:51;16.80;99.90
38084;DHT22;23894;51.466;7.444;2022-08-19T05:23:10;16.80;99.90
38084;DHT22;23894;51.466;7.444;2022-08-19T05:25:12;16.80;99.90
38084;DHT22;23894;51.466;7.444;2022-08-19T05:27:13;16.90;99.90
38084;DHT22;23894;51.466;7.444;2022-08-19T05:29:15;16.90;99.90
38084;DHT22;23894;51.466;7.444;2022-08-19T05:31:15;17.00;99.90
38084;DHT22;23894;51.466;7.444;2022-08-19T05:33:17;16.90;99.90
38084;DHT22;23894;51.466;7.444;2022-08-19T05:35:17;17.00;99.90
38084;DHT22;23894;51.466;7.444;2022-08-19T05:37:19;17.00;99.90
38084;DHT22;23894;51.466;7.444;2022-08-19T05:39:20;17.00;99.90
38084;DHT22;23894;51.466;7.444;2022-08-19T05:41:20;17.00;99.90
38084;DHT22;23894;51.466;7.444;2022-08-19T05:43:23;17.10;99.90
38084;DHT22;23894;51.466;7.444;2022-08-19T05:45:24;17.10;99.90
38084;DHT22;23894;51.466;7.444;2022-08-19T05:47:25;17.10;99.90
38084;DHT22;23894;51.466;7.444;2022-08-19T05:49:26;17.20;99.90
38084;DHT22;23894;51.466;7.444;2022-08-19T05:51:27;17.20;99.90
38084;DHT22;23894;51.466;7.444;2022-08-19T05:53:27;17.20;99.90
38084;DHT22;23894;51.466;7.444;2022-08-19T05:55:28;17.30;99.90
38084;DHT22;23894;51.466;7.444;2022-08-19T05:57:28;17.20;99.90
38084;DHT22;23894;51.466;7.444;2022-08-19T05:59:29;17.30;99.90
38084;DHT22;23894;51.466;7.444;2022-08-19T06:01:29;17.30;99.90
38084;DHT22;23894;51.466;7.444;2022-08-19T06:03:30;17.40;99.90
38084;DHT22;23894;51.466;7.444;2022-08-19T06:05:30;17.40;99.90
38084;DHT22;23894;51.466;7.444;2022-08-19T06:07:31;17.50;99.90
38084;DHT22;23894;51.466;7.444;2022-08-19T06:09:32;17.50;99.90
38084;DHT22;23894;51.466;7.444;2022-08-19T06:11:40;17.50;99.90
38084;DHT22;23894;51.466;7.444;2022-08-19T06:13:40;17.60;99.90
38084;DHT22;23894;51.466;7.444;2022-08-19T06:15:41;17.70;99.90
38084;DHT22;23894;51.466;7.444;2022-08-19T06:17:44;17.80;99.90
38084;DHT22;23894;51.466;7.444;2022-08-19T06:19:44;17.90;99.90
38084;DHT22;23894;51.466;7.444;2022-08-19T06:21:46;18.00;99.90
38084;DHT22;23894;51.466;7.444;2022-08-19T06:23:47;18.10;99.90
38084;DHT22;23894;51.466;7.444;2022-08-19T06:25:48;18.20;99.90
38084;DHT22;23894;51.466;7.444;2022-08-19T06:27:48;18.40;99.90
38084;DHT22;23894;51.466;7.444;2022-08-19T06:29:49;18.40;99.90
38084;DHT22;23894;51.466;7.444;2022-08-19T06:31:53;18.50;99.90
38084;DHT22;23894;51.466;7.444;2022-08-19T06:33:53;18.50;99.90
38084;DHT22;23894;51.466;7.444;2022-08-19T06:35:54;18.60;99.90
38084;DHT22;23894;51.466;7.444;2022-08-19T06:37:55;18.70;99.90
38084;DHT22;23894;51.466;7.444;2022-08-19T06:39:55;18.80;99.90
38084;DHT22;23894;51.466;7.444;2022-08-19T06:42:02;18.90;99.90
38084;DHT22;23894;51.466;7.444;2022-08-19T06:44:04;18.90;99.90
38084;DHT22;23894;51.466;7.444;2022-08-19T06:46:12;19.00;99.90
38084;DHT22;23894;51.466;7.444;2022-08-19T06:48:13;19.10;99.90
38084;DHT22;23894;51.466;7.444;2022-08-19T06:50:14;19.10;99.90
38084;DHT22;23894;51.466;7.444;2022-08-19T06:52:14;19.20;99.90
38084;DHT22;23894;51.466;7.444;2022-08-19T06:54:17;19.20;99.90
38084;DHT22;23894;51.466;7.444;2022-08-19T06:56:21;19.30;99.90
38084;DHT22;23894;51.466;7.444;2022-08-19T06:58:25;19.40;99.90
38084;DHT22;23894;51.466;7.444;2022-08-19T07:00:25;19.50;99.90
38084;DHT22;23894;51.466;7.444;2022-08-19T07:02:26;19.50;99.90
38084;DHT22;23894;51.466;7.444;2022-08-19T07:04:29;19.60;99.90
38084;DHT22;23894;51.466;7.444;2022-08-19T07:06:32;19.60;99.90
38084;DHT22;23894;51.466;7.444;2022-08-19T07:08:34;19.60;99.90
38084;DHT22;23894;51.466;7.444;2022-08-19T07:10:36;19.70;99.90
38084;DHT22;23894;51.466;7.444;2022-08-19T07:12:37;19.70;99.90
38084;DHT22;23894;51.466;7.444;2022-08-19T07:14:38;19.80;99.90
38084;DHT22;23894;51.466;7.444;2022-08-19T07:16:39;19.80;99.90
38084;DHT22;23894;51.466;7.444;2022-08-19T07:18:39;19.90;99.90
38084;DHT22;23894;51.466;7.444;2022-08-19T07:20:40;19.90;99.90
38084;DHT22;23894;51.466;7.444;2022-08-19T07:22:43;19.90;99.90
38084;DHT22;23894;51.466;7.444;2022-08-19T07:24:45;20.00;99.90
38084;DHT22;23894;51.466;7.444;2022-08-19T07:26:46;20.00;99.90
38084;DHT22;23894;51.466;7.444;2022-08-19T07:28:48;20.10;99.90
38084;DHT22;23894;51.466;7.444;2022-08-19T07:30:49;20.20;99.90
38084;DHT22;23894;51.466;7.444;2022-08-19T07:32:50;20.20;99.90
38084;DHT22;23894;51.466;7.444;2022-08-19T07:34:52;20.30;99.90
38084;DHT22;23894;51.466;7.444;2022-08-19T07:36:53;20.30;99.90
38084;DHT22;23894;51.466;7.444;2022-08-19T07:38:54;20.40;99.90
38084;DHT22;23894;51.466;7.444;2022-08-19T07:40:55;20.40;99.90
38084;DHT22;23894;51.466;7.444;2022-08-19T07:42:55;20.40;99.90
38084;DHT22;23894;51.466;7.444;2022-08-19T07:44:56;20.50;99.90
38084;DHT22;23894;51.466;7.444;2022-08-19T07:46:57;20.50;99.90
38084;DHT22;23894;51.466;7.444;2022-08-19T07:48:59;20.60;99.90
38084;DHT22;23894;51.466;7.444;2022-08-19T07:51:04;20.70;99.90
38084;DHT22;23894;51.466;7.444;2022-08-19T07:53:09;20.70;99.90
38084;DHT22;23894;51.466;7.444;2022-08-19T07:55:10;20.70;99.90
38084;DHT22;23894;51.466;7.444;2022-08-19T07:57:11;20.80;99.90
38084;DHT22;23894;51.466;7.444;2022-08-19T07:59:13;20.80;99.90
38084;DHT22;23894;51.466;7.444;2022-08-19T08:01:20;20.90;99.90
38084;DHT22;23894;51.466;7.444;2022-08-19T08:03:22;21.00;99.90
38084;DHT22;23894;51.466;7.444;2022-08-19T08:05:46;21.00;99.90
38084;DHT22;23894;51.466;7.444;2022-08-19T08:08:05;21.10;99.90
38084;DHT22;23894;51.466;7.444;2022-08-19T08:10:25;21.10;99.90
38084;DHT22;23894;51.466;7.444;2022-08-19T08:12:30;21.20;99.90
38084;DHT22;23894;51.466;7.444;2022-08-19T08:14:36;21.20;99.90
38084;DHT22;23894;51.466;7.444;2022-08-19T08:16:39;21.30;99.90
38084;DHT22;23894;51.466;7.444;2022-08-19T08:18:39;21.30;99.90
38084;DHT22;23894;51.466;7.444;2022-08-19T08:20:42;21.40;99.90
38084;DHT22;23894;51.466;7.444;2022-08-19T08:22:44;21.50;99.90
38084;DHT22;23894;51.466;7.444;2022-08-19T08:25:05;21.50;99.90
38084;DHT22;23894;51.466;7.444;2022-08-19T08:27:06;21.60;99.90
38084;DHT22;23894;51.466;7.444;2022-08-19T08:29:07;21.70;99.90
38084;DHT22;23894;51.466;7.444;2022-08-19T08:31:09;21.80;99.90
38084;DHT22;23894;51.466;7.444;2022-08-19T08:33:10;21.80;99.90
38084;DHT22;23894;51.466;7.444;2022-08-19T08:35:14;21.90;99.90
38084;DHT22;23894;51.466;7.444;2022-08-19T08:37:16;22.00;99.90
38084;DHT22;23894;51.466;7.444;2022-08-19T08:39:20;22.10;99.90
38084;DHT22;23894;51.466;7.444;2022-08-19T08:43:34;22.30;99.90
38084;DHT22;23894;51.466;7.444;2022-08-19T08:45:38;22.40;99.90
38084;DHT22;23894;51.466;7.444;2022-08-19T08:47:47;22.50;99.90
38084;DHT22;23894;51.466;7.444;2022-08-19T08:49:56;22.50;99.90
38084;DHT22;23894;51.466;7.444;2022-08-19T08:54:47;22.60;99.90
38084;DHT22;23894;51.466;7.444;2022-08-19T08:56:49;22.70;99.90
38084;DHT22;23894;51.466;7.444;2022-08-19T08:59:04;22.70;99.90
38084;DHT22;23894;51.466;7.444;2022-08-19T09:01:11;22.80;99.90
38084;DHT22;23894;51.466;7.444;2022-08-19T09:03:27;22.90;99.90
38084;DHT22;23894;51.466;7.444;2022-08-19T09:08:13;22.90;99.90
38084;DHT22;23894;51.466;7.444;2022-08-19T09:10:27;23.00;99.90
38084;DHT22;23894;51.466;7.444;2022-08-19T09:16:41;23.30;99.90
38084;DHT22;23894;51.466;7.444;2022-08-19T09:18:43;23.40;99.90
38084;DHT22;23894;51.466;7.444;2022-08-19T09:20:45;23.50;99.90
38084;DHT22;23894;51.466;7.444;2022-08-19T09:22:48;23.60;99.90
38084;DHT22;23894;51.466;7.444;2022-08-19T09:24:50;23.70;99.90
38084;DHT22;23894;51.466;7.444;2022-08-19T09:26:52;23.80;99.90
38084;DHT22;23894;51.466;7.444;2022-08-19T09:28:53;23.90;99.90
38084;DHT22;23894;51.466;7.444;2022-08-19T09:30:55;24.00;99.90
38084;DHT22;23894;51.466;7.444;2022-08-19T09:32:55;24.00;99.90
38084;DHT22;23894;51.466;7.444;2022-08-19T09:34:56;24.00;99.90
38084;DHT22;23894;51.466;7.444;2022-08-19T09:36:58;24.10;99.90
38084;DHT22;23894;51.466;7.444;2022-08-19T09:39:00;24.10;99.90
38084;DHT22;23894;51.466;7.444;2022-08-19T09:41:05;24.20;99.90
38084;DHT22;23894;51.466;7.444;2022-08-19T18:02:56;26.40;99.90
38084;DHT22;23894;51.466;7.444;2022-08-19T18:04:56;25.80;99.90
38084;DHT22;23894;51.466;7.444;2022-08-19T18:06:57;25.60;99.90
38084;DHT22;23894;51.466;7.444;2022-08-19T18:08:58;25.60;99.90
38084;DHT22;23894;51.466;7.444;2022-08-19T18:10:58;25.60;99.90
38084;DHT22;23894;51.466;7.444;2022-08-19T18:12:59;25.50;99.90
38084;DHT22;23894;51.466;7.444;2022-08-19T18:15:00;25.50;99.90
38084;DHT22;23894;51.466;7.444;2022-08-19T18:17:06;25.50;99.90
38084;DHT22;23894;51.466;7.444;2022-08-19T18:19:08;25.50;99.90
38084;DHT22;23894;51.466;7.444;2022-08-19T18:21:09;25.50;99.90
38084;DHT22;23894;51.466;7.444;2022-08-19T18:23:09;25.50;99.90
38084;DHT22;23894;51.466;7.444;2022-08-19T18:25:18;25.50;99.90
38084;DHT22;23894;51.466;7.444;2022-08-19T18:27:22;25.40;99.90
38084;DHT22;23894;51.466;7.444;2022-08-19T18:29:22;25.40;99.90
38084;DHT22;23894;51.466;7.444;2022-08-19T18:31:22;25.30;99.90
38084;DHT22;23894;51.466;7.444;2022-08-19T18:33:23;25.30;99.90
38084;DHT22;23894;51.466;7.444;2022-08-19T18:35:25;25.20;99.90
38084;DHT22;23894;51.466;7.444;2022-08-19T18:37:28;25.20;99.90
38084;DHT22;23894;51.466;7.444;2022-08-19T18:39:29;25.10;99.90
38084;DHT22;23894;51.466;7.444;2022-08-19T18:41:48;25.10;99.90
38084;DHT22;23894;51.466;7.444;2022-08-19T18:44:07;25.00;99.90
38084;DHT22;23894;51.466;7.444;2022-08-19T18:46:26;25.00;99.90
38084;DHT22;23894;51.466;7.444;2022-08-19T18:48:45;24.90;99.90
38084;DHT22;23894;51.466;7.444;2022-08-19T18:51:04;24.80;99.90
38084;DHT22;23894;51.466;7.444;2022-08-19T18:53:04;24.80;99.90
38084;DHT22;23894;51.466;7.444;2022-08-19T18:55:05;24.70;99.90
38084;DHT22;23894;51.466;7.444;2022-08-19T18:57:06;24.70;99.90
38084;DHT22;23894;51.466;7.444;2022-08-19T18:59:07;24.60;99.90
38084;DHT22;23894;51.466;7.444;2022-08-19T19:01:09;24.60;99.90
38084;DHT22;23894;51.466;7.444;2022-08-19T19:03:10;24.50;99.90
38084;DHT22;23894;51.466;7.444;2022-08-19T19:05:13;24.50;99.90
38084;DHT22;23894;51.466;7.444;2022-08-19T19:07:14;24.40;99.90
38084;DHT22;23894;51.466;7.444;2022-08-19T19:09:19;24.40;99.90
38084;DHT22;23894;51.466;7.444;2022-08-19T19:11:22;24.30;99.90
38084;DHT22;23894;51.466;7.444;2022-08-19T19:13:23;24.30;99.90
38084;DHT22;23894;51.466;7.444;2022-08-19T19:15:24;24.20;99.90
38084;DHT22;23894;51.466;7.444;2022-08-19T19:17:24;24.00;99.90
38084;DHT22;23894;51.466;7.444;2022-08-19T19:19:27;24.00;99.90
38084;DHT22;23894;51.466;7.444;2022-08-19T19:21:28;23.90;99.90
38084;DHT22;23894;51.466;7.444;2022-08-19T19:23:29;23.90;99.90
38084;DHT22;23894;51.466;7.444;2022-08-19T19:25:29;23.80;99.90
38084;DHT22;23894;51.466;7.444;2022-08-19T19:27:31;23.80;99.90
38084;DHT22;23894;51.466;7.444;2022-08-19T19:29:32;23.70;99.90
38084;DHT22;23894;51.466;7.444;2022-08-19T19:31:35;23.70;99.90
38084;DHT22;23894;51.466;7.444;2022-08-19T19:33:36;23.70;99.90
38084;DHT22;23894;51.466;7.444;2022-08-19T19:35:36;23.70;99.90
38084;DHT22;23894;51.466;7.444;2022-08-19T19:37:37;23.70;99.90
38084;DHT22;23894;51.466;7.444;2022-08-19T19:39:37;23.70;99.90
38084;DHT22;23894;51.466;7.444;2022-08-19T19:41:38;23.70;99.90
38084;DHT22;23894;51.466;7.444;2022-08-19T19:43:38;23.60;99.90
38084;DHT22;23894;51.466;7.444;2022-08-19T19:45:39;23.60;99.90
38084;DHT22;23894;51.466;7.444;2022-08-19T19:47:39;23.60;99.90
38084;DHT22;23894;51.466;7.444;2022-08-19T19:49:41;23.60;99.90
38084;DHT22;23894;51.466;7.444;2022-08-19T19:51:42;23.60;99.90
38084;DHT22;23894;51.466;7.444;2022-08-19T19:53:42;23.60;99.90
38084;DHT22;23894;51.466;7.444;2022-08-19T19:55:43;23.50;99.90
38084;DHT22;23894;51.466;7.444;2022-08-19T19:57:44;23.50;99.90
38084;DHT22;23894;51.466;7.444;2022-08-19T19:59:45;23.50;99.90
38084;DHT22;23894;51.466;7.444;2022-08-19T20:01:45;23.50;99.90
